createdAt,value
2022-08-26T00:05:01.471Z,25.77
2022-08-26T00:10:06.687Z,18.02
2022-08-26T00:15:10.633Z,22.15
2022-08-26T00:20:15.274Z,18.48
2022-08-26T00:25:20.512Z,17.73
2022-08-26T00:30:27.493Z,23.27
2022-08-26T00:35:31.225Z,16.95
2022-08-26T00:40:40.024Z,25.25
2022-08-26T00:45:45.354Z,20.73
2022-08-26T00:50:50.303Z,20.95
2022-08-26T00:55:56.342Z,19.45
2022-08-26T01:00:59.562Z,20.38
2022-08-26T01:06:03.995Z,20.63
2022-08-26T01:11:09.351Z,19.83
2022-08-26T01:16:17.486Z,18.88
2022-08-26T01:26:29.011Z,21.25
2022-08-26T01:31:34.679Z,20.17
2022-08-26T01:36:37.752Z,22.05
2022-08-26T01:41:43.982Z,24.05
2022-08-26T01:46:48.687Z,26.30
2022-08-26T01:51:55.288Z,18.88
2022-08-26T01:57:00.032Z,21.58
2022-08-26T02:02:03.020Z,23.00
2022-08-26T02:07:06.739Z,20.77
2022-08-26T02:12:13.155Z,25.23
2022-08-26T02:17:19.028Z,24.20
2022-08-26T02:22:24.881Z,19.80
2022-08-26T02:27:32.425Z,23.85
2022-08-26T02:32:35.288Z,27.77
2022-08-26T02:37:38.636Z,24.35
2022-08-26T02:42:46.315Z,22.73
2022-08-26T02:47:49.288Z,25.25
2022-08-26T02:52:53.651Z,21.20
2022-08-26T02:57:57.733Z,20.33
2022-08-26T03:03:01.045Z,21.77
2022-08-26T03:13:10.631Z,22.15
2022-08-26T03:18:13.680Z,24.83
2022-08-26T03:23:16.327Z,24.33
2022-08-26T03:28:22.611Z,26.05
2022-08-26T03:33:25.479Z,20.05
2022-08-26T03:38:28.669Z,26.27
2022-08-26T03:43:32.801Z,24.05
2022-08-26T03:48:36.224Z,24.75
2022-08-26T03:53:39.089Z,19.60
2022-08-26T03:58:44.413Z,25.67
2022-08-26T04:04:00.259Z,24.42
2022-08-26T04:09:05.887Z,25.23
2022-08-26T04:14:11.148Z,27.23
2022-08-26T04:19:15.461Z,24.02
2022-08-26T04:24:18.936Z,21.60
2022-08-26T04:34:28.454Z,19.33
2022-08-26T04:39:32.014Z,20.88
2022-08-26T04:44:35.657Z,23.85
2022-08-26T04:49:39.863Z,20.30
2022-08-26T04:54:44.321Z,20.55
2022-08-26T04:59:47.305Z,19.88
2022-08-26T05:04:54.105Z,21.15
2022-08-26T05:09:57.716Z,22.50
2022-08-26T05:15:00.906Z,21.83
2022-08-26T05:20:06.169Z,25.50
2022-08-26T05:25:10.039Z,22.38
2022-08-26T05:30:16.808Z,21.25
2022-08-26T05:35:21.161Z,19.73
2022-08-26T05:40:25.665Z,21.88
2022-08-26T05:45:29.267Z,24.65
2022-08-26T05:50:41.984Z,24.13
2022-08-26T05:55:47.648Z,24.95
2022-08-26T06:00:57.958Z,24.00
2022-08-26T06:06:03.671Z,23.90
2022-08-26T06:11:10.687Z,22.05
2022-08-26T06:16:23.027Z,27.33
2022-08-26T06:21:30.156Z,20.00
2022-08-26T06:26:34.218Z,25.13
2022-08-26T06:31:40.097Z,23.15
2022-08-26T06:36:45.000Z,18.70
2022-08-26T06:41:57.652Z,19.00
2022-08-26T06:47:04.009Z,22.30
2022-08-26T06:52:08.925Z,16.73
2022-08-26T06:57:11.748Z,21.23
2022-08-26T07:07:22.007Z,19.23
2022-08-26T07:12:25.946Z,18.90
2022-08-26T07:17:29.240Z,15.70
2022-08-26T07:22:34.275Z,16.40
2022-08-26T07:27:38.077Z,13.55
2022-08-26T07:32:41.882Z,12.82
2022-08-26T07:37:46.110Z,15.43
2022-08-26T07:42:49.249Z,13.20
2022-08-26T07:47:52.114Z,13.68
2022-08-26T07:52:56.718Z,12.65
2022-08-26T07:57:59.754Z,12.63
2022-08-26T08:03:05.715Z,12.13
2022-08-26T08:08:26.213Z,15.88
2022-08-26T08:13:31.392Z,14.50
2022-08-26T08:18:34.600Z,17.45
2022-08-26T08:23:39.673Z,15.10
2022-08-26T08:28:43.633Z,21.17
2022-08-26T08:33:47.251Z,17.08
2022-08-26T08:38:52.646Z,15.40
2022-08-26T08:43:55.993Z,25.17
2022-08-26T08:49:01.158Z,18.40
2022-08-26T08:54:05.896Z,14.45
2022-08-26T08:59:15.689Z,16.33
2022-08-26T09:04:30.984Z,14.57
2022-08-26T09:09:37.017Z,15.40
2022-08-26T09:14:39.966Z,14.95
2022-08-26T09:19:44.545Z,15.57
2022-08-26T09:24:49.741Z,15.30
2022-08-26T09:29:54.877Z,17.33
2022-08-26T09:34:58.632Z,15.80
2022-08-26T09:40:15.378Z,14.48
2022-08-26T09:45:28.173Z,15.68
2022-08-26T09:50:31.842Z,16.05
2022-08-26T09:55:37.133Z,14.48
2022-08-26T10:00:41.753Z,11.85
2022-08-26T10:05:47.705Z,15.70
2022-08-26T10:10:53.809Z,12.35
2022-08-26T10:16:02.725Z,14.45
2022-08-26T10:21:11.168Z,18.40
2022-08-26T10:26:20.264Z,16.50
2022-08-26T10:31:29.000Z,19.25
2022-08-26T10:42:18.376Z,11.82
2022-08-26T10:47:24.844Z,13.68
2022-08-26T10:52:35.360Z,12.75
2022-08-26T10:57:44.685Z,13.35
2022-08-26T11:02:50.256Z,15.77
2022-08-26T11:07:57.064Z,15.48
2022-08-26T11:13:03.603Z,14.70
2022-08-26T11:18:09.198Z,13.82
2022-08-26T11:23:30.907Z,15.65
2022-08-26T11:28:44.237Z,15.20
2022-08-26T11:33:48.427Z,13.30
2022-08-26T11:38:55.275Z,13.43
2022-08-26T11:44:02.012Z,11.98
2022-08-26T11:49:06.812Z,11.07
2022-08-26T11:54:10.714Z,11.98
2022-08-26T11:59:18.868Z,11.20
2022-08-26T12:04:26.368Z,10.55
2022-08-26T12:09:31.606Z,10.05
2022-08-26T12:14:36.084Z,7.85
2022-08-26T12:19:42.533Z,9.45
2022-08-26T12:24:48.537Z,8.65
2022-08-26T12:30:08.557Z,17.77
2022-08-26T12:35:13.253Z,15.00
2022-08-26T12:40:26.834Z,13.48
2022-08-26T12:45:32.691Z,12.02
2022-08-26T12:50:37.043Z,10.32
2022-08-26T12:55:42.463Z,9.70
2022-08-26T13:00:48.706Z,12.68
2022-08-26T13:05:52.279Z,8.48
2022-08-26T13:11:04.806Z,9.90
2022-08-26T13:16:09.222Z,10.23
2022-08-26T13:21:17.337Z,11.55
2022-08-26T13:26:20.957Z,12.80
2022-08-26T13:31:26.946Z,6.90
2022-08-26T13:36:29.969Z,10.70
2022-08-26T13:41:33.907Z,8.35
2022-08-26T13:46:38.172Z,9.50
2022-08-26T13:51:41.754Z,9.77
2022-08-26T13:56:45.231Z,10.43
2022-08-26T14:01:49.261Z,10.75
2022-08-26T14:06:52.219Z,12.07
2022-08-26T14:11:55.378Z,11.88
2022-08-26T14:17:00.553Z,10.80
2022-08-26T14:22:03.574Z,13.88
2022-08-26T14:27:06.348Z,10.32
2022-08-26T14:32:12.921Z,11.40
2022-08-26T14:37:16.118Z,8.60
2022-08-26T14:42:23.272Z,11.95
2022-08-26T14:47:27.323Z,9.85
2022-08-26T14:52:50.140Z,12.38
2022-08-26T14:57:52.869Z,9.07
2022-08-26T15:02:57.059Z,11.43
2022-08-26T15:08:00.776Z,8.95
2022-08-26T15:13:03.831Z,8.18
2022-08-26T15:18:07.996Z,13.93
2022-08-26T15:23:12.001Z,10.27
2022-08-26T15:28:14.932Z,12.32
2022-08-26T15:33:19.586Z,10.57
2022-08-26T15:38:22.988Z,11.27
2022-08-26T15:43:29.003Z,12.35
2022-08-26T15:48:33.812Z,14.70
2022-08-26T15:53:36.867Z,14.60
2022-08-26T15:58:40.128Z,10.70
2022-08-26T16:03:47.910Z,12.40
2022-08-26T16:08:51.889Z,12.60
2022-08-26T16:13:54.688Z,11.30
2022-08-26T16:18:58.944Z,14.95
2022-08-26T16:24:01.651Z,15.40
2022-08-26T16:29:06.474Z,16.77
2022-08-26T16:34:10.934Z,13.20
2022-08-26T16:39:13.951Z,14.05
2022-08-26T16:44:16.814Z,14.95
2022-08-26T16:49:21.147Z,12.32
2022-08-26T16:54:24.152Z,21.77
2022-08-26T16:59:26.976Z,10.98
2022-08-26T17:04:32.455Z,16.08
2022-08-26T17:09:35.520Z,14.75
2022-08-26T17:14:39.346Z,16.08
2022-08-26T17:19:46.993Z,12.52
2022-08-26T17:24:50.245Z,14.43
2022-08-26T17:29:53.308Z,14.80
2022-08-26T17:34:58.081Z,11.52
2022-08-26T17:40:01.074Z,16.13
2022-08-26T17:45:03.822Z,16.65
2022-08-26T17:50:10.621Z,13.73
2022-08-26T17:55:15.022Z,14.38
2022-08-26T18:00:20.743Z,13.55
2022-08-26T18:05:25.097Z,15.07
2022-08-26T18:10:27.999Z,13.82
2022-08-26T18:15:31.508Z,16.63
2022-08-26T18:20:35.788Z,18.95
2022-08-26T18:25:40.404Z,13.85
2022-08-26T18:30:44.259Z,16.67
2022-08-26T18:35:48.620Z,14.60
2022-08-26T18:40:52.760Z,14.07
2022-08-26T18:46:02.395Z,16.02
2022-08-26T18:51:07.145Z,23.30
2022-08-26T18:56:15.373Z,13.52
2022-08-26T19:01:27.781Z,13.43
2022-08-26T19:06:33.081Z,9.05
2022-08-26T19:11:37.604Z,9.40
2022-08-26T19:16:49.072Z,7.10
2022-08-26T19:21:53.618Z,7.72
2022-08-26T19:26:58.354Z,6.63
2022-08-26T19:32:02.604Z,8.27
2022-08-26T19:37:07.393Z,4.40
2022-08-26T19:42:10.493Z,3.50
2022-08-26T19:47:13.517Z,3.92
2022-08-26T19:52:18.233Z,6.88
2022-08-26T19:57:21.258Z,12.13
2022-08-26T20:02:24.278Z,20.90
2022-08-26T20:07:28.632Z,18.13
2022-08-26T20:12:33.845Z,17.40
2022-08-26T20:17:37.108Z,11.80
2022-08-26T20:22:43.796Z,12.82
2022-08-26T20:27:47.181Z,12.23
2022-08-26T20:32:50.205Z,15.98
2022-08-26T20:37:55.768Z,12.50
2022-08-26T20:42:59.178Z,16.35
2022-08-26T20:53:05.848Z,11.48
2022-08-26T20:58:08.697Z,11.57
2022-08-26T21:03:11.532Z,11.25
2022-08-26T21:08:15.724Z,13.93
2022-08-26T21:13:18.749Z,8.95
2022-08-26T21:18:21.517Z,7.22
2022-08-26T21:23:29.194Z,12.38
2022-08-26T21:28:32.246Z,10.75
2022-08-26T21:33:35.786Z,13.18
2022-08-26T21:43:45.916Z,13.05
2022-08-26T21:48:53.376Z,7.22
2022-08-26T21:53:59.024Z,10.27
2022-08-26T21:59:09.542Z,9.07
2022-08-26T22:04:13.670Z,13.77
2022-08-26T22:09:19.125Z,10.05
2022-08-26T22:14:30.634Z,16.58
2022-08-26T22:19:45.622Z,13.23
2022-08-26T22:24:53.105Z,13.05
2022-08-26T22:30:01.731Z,14.65
2022-08-26T22:35:28.298Z,17.23
2022-08-26T22:40:34.508Z,13.68
2022-08-26T22:45:45.772Z,13.27
2022-08-26T22:50:51.457Z,13.25
2022-08-26T22:55:59.264Z,16.17
2022-08-26T23:01:10.389Z,15.77
2022-08-26T23:06:35.316Z,12.95
2022-08-26T23:16:50.531Z,16.98
2022-08-26T23:22:09.809Z,14.85
2022-08-26T23:27:15.261Z,13.93
2022-08-26T23:32:29.454Z,11.52
2022-08-26T23:37:35.946Z,13.07
2022-08-26T23:42:38.996Z,10.30
2022-08-26T23:47:43.140Z,7.87
2022-08-26T23:53:14.810Z,9.45
2022-08-26T23:58:18.208Z,9.13
